sensor_id;sensor_type;location;lat;lon;timestamp;pressure;altitude;pressure_sealevel;temperature;humidity
48156;BME280;35568;48.104;11.782;2022-09-12T00:01:20;95614.31;;;11.46;58.79
48156;BME280;35568;48.104;11.782;2022-09-12T00:03:51;95611.00;;;11.27;59.22
48156;BME280;35568;48.104;11.782;2022-09-12T00:06:21;95608.14;;;11.20;59.27
48156;BME280;35568;48.104;11.782;2022-09-12T00:08:49;95608.41;;;11.34;59.00
48156;BME280;35568;48.104;11.782;2022-09-12T00:11:17;95608.58;;;11.28;58.90
48156;BME280;35568;48.104;11.782;2022-09-12T00:13:44;95607.94;;;11.30;58.89
48156;BME280;35568;48.104;11.782;2022-09-12T00:16:15;95601.84;;;11.40;58.56
48156;BME280;35568;48.104;11.782;2022-09-12T00:18:43;95603.88;;;11.35;58.55
48156;BME280;35568;48.104;11.782;2022-09-12T00:21:10;95606.15;;;11.33;58.50
48156;BME280;35568;48.104;11.782;2022-09-12T00:23:38;95605.13;;;11.16;58.79
48156;BME280;35568;48.104;11.782;2022-09-12T00:26:06;95603.45;;;10.96;59.31
48156;BME280;35568;48.104;11.782;2022-09-12T00:28:33;95601.50;;;10.98;59.26
48156;BME280;35568;48.104;11.782;2022-09-12T00:31:04;95600.88;;;10.72;59.24
48156;BME280;35568;48.104;11.782;2022-09-12T00:33:31;95600.81;;;10.94;59.22
48156;BME280;35568;48.104;11.782;2022-09-12T00:35:58;95597.43;;;11.09;58.83
48156;BME280;35568;48.104;11.782;2022-09-12T00:38:25;95594.96;;;11.04;58.78
48156;BME280;35568;48.104;11.782;2022-09-12T00:40:51;95594.31;;;10.88;59.13
48156;BME280;35568;48.104;11.782;2022-09-12T00:43:35;95592.53;;;10.91;58.92
48156;BME280;35568;48.104;11.782;2022-09-12T00:46:09;95590.59;;;10.86;59.05
48156;BME280;35568;48.104;11.782;2022-09-12T00:48:42;95588.35;;;11.05;58.54
48156;BME280;35568;48.104;11.782;2022-09-12T00:51:11;95590.29;;;11.13;58.16
48156;BME280;35568;48.104;11.782;2022-09-12T00:53:40;95585.31;;;11.41;57.84
48156;BME280;35568;48.104;11.782;2022-09-12T00:56:11;95583.17;;;11.12;57.90
48156;BME280;35568;48.104;11.782;2022-09-12T00:58:42;95577.54;;;11.02;58.05
48156;BME280;35568;48.104;11.782;2022-09-12T01:01:10;95576.92;;;10.65;58.05
48156;BME280;35568;48.104;11.782;2022-09-12T01:03:37;95571.53;;;10.83;58.35
48156;BME280;35568;48.104;11.782;2022-09-12T01:06:07;95570.83;;;10.59;58.84
48156;BME280;35568;48.104;11.782;2022-09-12T01:08:38;95570.03;;;10.58;58.92
48156;BME280;35568;48.104;11.782;2022-09-12T01:11:07;95565.73;;;10.78;59.03
48156;BME280;35568;48.104;11.782;2022-09-12T01:13:35;95562.28;;;10.61;58.88
48156;BME280;35568;48.104;11.782;2022-09-12T01:16:04;95560.55;;;11.20;58.58
48156;BME280;35568;48.104;11.782;2022-09-12T01:18:41;95560.71;;;10.86;58.50
48156;BME280;35568;48.104;11.782;2022-09-12T01:21:15;95557.48;;;10.88;58.39
48156;BME280;35568;48.104;11.782;2022-09-12T01:24:53;95553.15;;;10.85;58.38
48156;BME280;35568;48.104;11.782;2022-09-12T01:27:39;95548.03;;;10.81;58.10
48156;BME280;35568;48.104;11.782;2022-09-12T01:30:44;95544.52;;;10.61;58.25
48156;BME280;35568;48.104;11.782;2022-09-12T01:33:28;95543.84;;;10.74;58.43
48156;BME280;35568;48.104;11.782;2022-09-12T01:36:12;95542.41;;;10.95;58.47
48156;BME280;35568;48.104;11.782;2022-09-12T01:38:46;95540.58;;;10.49;58.34
48156;BME280;35568;48.104;11.782;2022-09-12T01:41:23;95540.34;;;10.54;58.29
48156;BME280;35568;48.104;11.782;2022-09-12T01:43:59;95540.51;;;10.56;58.67
48156;BME280;35568;48.104;11.782;2022-09-12T01:46:32;95537.60;;;10.52;58.79
48156;BME280;35568;48.104;11.782;2022-09-12T01:49:08;95537.89;;;10.82;58.70
48156;BME280;35568;48.104;11.782;2022-09-12T01:51:43;95533.98;;;10.79;58.61
48156;BME280;35568;48.104;11.782;2022-09-12T01:54:19;95534.50;;;10.71;58.70
48156;BME280;35568;48.104;11.782;2022-09-12T01:56:51;95534.37;;;10.45;58.53
48156;BME280;35568;48.104;11.782;2022-09-12T01:59:25;95529.98;;;10.84;58.50
48156;BME280;35568;48.104;11.782;2022-09-12T02:01:59;95524.57;;;10.53;58.31
48156;BME280;35568;48.104;11.782;2022-09-12T02:04:30;95521.85;;;10.79;58.27
48156;BME280;35568;48.104;11.782;2022-09-12T02:07:03;95521.26;;;10.50;58.30
48156;BME280;35568;48.104;11.782;2022-09-12T02:09:36;95522.49;;;10.45;58.46
48156;BME280;35568;48.104;11.782;2022-09-12T02:12:05;95523.09;;;10.58;57.91
48156;BME280;35568;48.104;11.782;2022-09-12T02:14:41;95520.25;;;10.21;58.00
48156;BME280;35568;48.104;11.782;2022-09-12T02:17:11;95520.28;;;10.25;58.23
48156;BME280;35568;48.104;11.782;2022-09-12T02:19:41;95515.47;;;10.54;58.45
48156;BME280;35568;48.104;11.782;2022-09-12T02:22:13;95511.35;;;10.61;58.16
48156;BME280;35568;48.104;11.782;2022-09-12T02:24:46;95505.72;;;10.35;58.06
48156;BME280;35568;48.104;11.782;2022-09-12T02:27:19;95502.91;;;10.55;58.10
48156;BME280;35568;48.104;11.782;2022-09-12T02:29:47;95503.68;;;10.50;58.15
48156;BME280;35568;48.104;11.782;2022-09-12T02:32:19;95500.26;;;10.47;58.18
48156;BME280;35568;48.104;11.782;2022-09-12T02:34:53;95502.62;;;10.44;58.26
48156;BME280;35568;48.104;11.782;2022-09-12T02:37:31;95497.86;;;10.51;58.09
48156;BME280;35568;48.104;11.782;2022-09-12T02:40:00;95496.42;;;10.58;57.88
48156;BME280;35568;48.104;11.782;2022-09-12T02:42:27;95497.52;;;10.57;57.77
48156;BME280;35568;48.104;11.782;2022-09-12T02:44:55;95496.30;;;10.54;57.92
48156;BME280;35568;48.104;11.782;2022-09-12T02:47:27;95497.64;;;10.57;57.71
48156;BME280;35568;48.104;11.782;2022-09-12T02:49:56;95500.12;;;10.50;57.68
48156;BME280;35568;48.104;11.782;2022-09-12T02:52:23;95498.71;;;10.09;57.79
48156;BME280;35568;48.104;11.782;2022-09-12T02:54:51;95497.67;;;10.40;57.81
48156;BME280;35568;48.104;11.782;2022-09-12T02:57:21;95497.10;;;10.42;57.87
48156;BME280;35568;48.104;11.782;2022-09-12T02:59:50;95499.85;;;10.41;57.83
48156;BME280;35568;48.104;11.782;2022-09-12T03:03:14;95497.86;;;10.46;57.52
48156;BME280;35568;48.104;11.782;2022-09-12T03:05:49;95496.76;;;9.89;57.59
48156;BME280;35568;48.104;11.782;2022-09-12T03:08:35;95493.83;;;10.20;57.73
48156;BME280;35568;48.104;11.782;2022-09-12T03:11:19;95493.01;;;10.08;57.96
48156;BME280;35568;48.104;11.782;2022-09-12T03:13:56;95493.36;;;10.03;57.99
48156;BME280;35568;48.104;11.782;2022-09-12T03:16:29;95493.54;;;10.23;57.96
48156;BME280;35568;48.104;11.782;2022-09-12T03:19:04;95491.54;;;10.11;57.86
48156;BME280;35568;48.104;11.782;2022-09-12T03:21:36;95491.80;;;10.34;57.72
48156;BME280;35568;48.104;11.782;2022-09-12T03:24:11;95493.49;;;9.76;57.83
48156;BME280;35568;48.104;11.782;2022-09-12T03:26:43;95491.66;;;10.04;57.60
48156;BME280;35568;48.104;11.782;2022-09-12T03:29:14;95494.68;;;9.87;57.84
48156;BME280;35568;48.104;11.782;2022-09-12T03:31:51;95493.26;;;9.84;57.89
48156;BME280;35568;48.104;11.782;2022-09-12T03:34:19;95491.19;;;10.10;57.83
48156;BME280;35568;48.104;11.782;2022-09-12T03:36:47;95491.37;;;9.98;57.53
48156;BME280;35568;48.104;11.782;2022-09-12T03:39:13;95488.19;;;9.94;57.59
48156;BME280;35568;48.104;11.782;2022-09-12T03:41:40;95487.26;;;9.89;57.71
48156;BME280;35568;48.104;11.782;2022-09-12T03:44:07;95485.80;;;9.83;57.68
48156;BME280;35568;48.104;11.782;2022-09-12T03:46:35;95487.95;;;9.94;57.46
48156;BME280;35568;48.104;11.782;2022-09-12T03:49:02;95486.15;;;9.87;57.62
48156;BME280;35568;48.104;11.782;2022-09-12T03:51:29;95485.58;;;9.92;57.44
48156;BME280;35568;48.104;11.782;2022-09-12T03:53:56;95486.36;;;9.90;57.26
48156;BME280;35568;48.104;11.782;2022-09-12T03:56:23;95488.57;;;9.83;57.61
48156;BME280;35568;48.104;11.782;2022-09-12T03:58:50;95490.92;;;9.88;57.93
48156;BME280;35568;48.104;11.782;2022-09-12T04:01:20;95492.51;;;9.71;57.68
48156;BME280;35568;48.104;11.782;2022-09-12T04:03:48;95489.50;;;9.78;57.45
48156;BME280;35568;48.104;11.782;2022-09-12T04:06:18;95487.50;;;10.06;57.37
48156;BME280;35568;48.104;11.782;2022-09-12T04:08:48;95486.59;;;9.81;57.15
48156;BME280;35568;48.104;11.782;2022-09-12T04:11:16;95490.75;;;9.98;57.15
48156;BME280;35568;48.104;11.782;2022-09-12T04:13:44;95493.53;;;9.84;57.31
48156;BME280;35568;48.104;11.782;2022-09-12T04:16:12;95492.69;;;9.41;57.83
48156;BME280;35568;48.104;11.782;2022-09-12T04:18:39;95493.65;;;9.76;57.70
48156;BME280;35568;48.104;11.782;2022-09-12T04:21:08;95490.72;;;9.76;57.51
48156;BME280;35568;48.104;11.782;2022-09-12T04:23:35;95491.25;;;9.48;57.54
48156;BME280;35568;48.104;11.782;2022-09-12T04:26:03;95491.05;;;9.63;57.57
48156;BME280;35568;48.104;11.782;2022-09-12T04:28:31;95490.81;;;9.51;57.97
48156;BME280;35568;48.104;11.782;2022-09-12T04:31:01;95491.41;;;9.54;57.91
48156;BME280;35568;48.104;11.782;2022-09-12T04:33:28;95491.48;;;9.68;58.10
48156;BME280;35568;48.104;11.782;2022-09-12T04:35:55;95491.08;;;9.42;58.11
48156;BME280;35568;48.104;11.782;2022-09-12T04:38:22;95493.24;;;9.37;58.19
48156;BME280;35568;48.104;11.782;2022-09-12T04:40:49;95495.18;;;9.34;58.43
48156;BME280;35568;48.104;11.782;2022-09-12T04:43:15;95495.88;;;9.25;58.16
48156;BME280;35568;48.104;11.782;2022-09-12T04:45:42;95494.22;;;9.34;58.12
48156;BME280;35568;48.104;11.782;2022-09-12T04:48:09;95490.91;;;9.63;58.22
48156;BME280;35568;48.104;11.782;2022-09-12T04:50:36;95491.01;;;9.48;58.07
48156;BME280;35568;48.104;11.782;2022-09-12T04:53:03;95488.82;;;9.66;58.00
48156;BME280;35568;48.104;11.782;2022-09-12T04:55:30;95487.65;;;9.57;57.84
48156;BME280;35568;48.104;11.782;2022-09-12T04:57:56;95487.78;;;9.20;57.90
48156;BME280;35568;48.104;11.782;2022-09-12T05:00:23;95488.94;;;9.42;58.60
48156;BME280;35568;48.104;11.782;2022-09-12T05:02:50;95489.02;;;9.41;58.68
48156;BME280;35568;48.104;11.782;2022-09-12T05:05:17;95487.64;;;9.52;58.57
48156;BME280;35568;48.104;11.782;2022-09-12T05:07:44;95489.34;;;9.26;58.66
48156;BME280;35568;48.104;11.782;2022-09-12T05:10:10;95492.98;;;9.43;58.04
48156;BME280;35568;48.104;11.782;2022-09-12T05:12:37;95494.44;;;9.41;58.07
48156;BME280;35568;48.104;11.782;2022-09-12T05:15:06;95496.01;;;9.42;58.01
48156;BME280;35568;48.104;11.782;2022-09-12T05:17:33;95496.32;;;9.66;58.23
48156;BME280;35568;48.104;11.782;2022-09-12T05:20:00;95501.40;;;9.55;58.32
48156;BME280;35568;48.104;11.782;2022-09-12T05:22:26;95500.56;;;9.66;58.24
48156;BME280;35568;48.104;11.782;2022-09-12T05:24:53;95504.94;;;10.00;58.09
48156;BME280;35568;48.104;11.782;2022-09-12T05:27:20;95506.43;;;9.81;58.25
48156;BME280;35568;48.104;11.782;2022-09-12T05:29:47;95507.09;;;9.99;58.30
48156;BME280;35568;48.104;11.782;2022-09-12T05:32:14;95507.82;;;10.25;57.95
48156;BME280;35568;48.104;11.782;2022-09-12T05:34:40;95508.05;;;10.39;57.70
48156;BME280;35568;48.104;11.782;2022-09-12T05:37:07;95508.43;;;10.51;57.71
48156;BME280;35568;48.104;11.782;2022-09-12T05:39:34;95510.15;;;10.46;57.57
48156;BME280;35568;48.104;11.782;2022-09-12T05:42:01;95515.44;;;10.87;57.49
48156;BME280;35568;48.104;11.782;2022-09-12T05:44:28;95512.92;;;10.64;57.24
48156;BME280;35568;48.104;11.782;2022-09-12T05:46:54;95514.88;;;11.34;56.88
48156;BME280;35568;48.104;11.782;2022-09-12T05:49:21;95516.06;;;11.02;56.72
48156;BME280;35568;48.104;11.782;2022-09-12T05:51:48;95516.22;;;11.11;56.70
48156;BME280;35568;48.104;11.782;2022-09-12T05:54:17;95516.06;;;11.25;56.77
48156;BME280;35568;48.104;11.782;2022-09-12T05:56:44;95517.55;;;11.47;56.33
48156;BME280;35568;48.104;11.782;2022-09-12T05:59:13;95519.04;;;11.27;56.10
48156;BME280;35568;48.104;11.782;2022-09-12T06:01:42;95518.18;;;11.78;56.01
48156;BME280;35568;48.104;11.782;2022-09-12T06:04:10;95519.54;;;12.08;55.66
48156;BME280;35568;48.104;11.782;2022-09-12T06:06:38;95520.71;;;11.96;55.42
48156;BME280;35568;48.104;11.782;2022-09-12T06:09:06;95518.62;;;12.10;55.51
48156;BME280;35568;48.104;11.782;2022-09-12T06:11:35;95514.22;;;12.26;55.51
48156;BME280;35568;48.104;11.782;2022-09-12T06:14:03;95512.47;;;12.52;55.46
48156;BME280;35568;48.104;11.782;2022-09-12T06:16:31;95512.62;;;12.68;54.84
48156;BME280;35568;48.104;11.782;2022-09-12T06:19:00;95512.43;;;12.82;54.96
48156;BME280;35568;48.104;11.782;2022-09-12T06:21:28;95515.45;;;12.75;54.13
48156;BME280;35568;48.104;11.782;2022-09-12T06:23:56;95516.00;;;13.00;54.27
48156;BME280;35568;48.104;11.782;2022-09-12T06:26:23;95517.58;;;13.29;54.09
48156;BME280;35568;48.104;11.782;2022-09-12T06:28:52;95517.58;;;13.68;53.40
48156;BME280;35568;48.104;11.782;2022-09-12T06:31:21;95513.63;;;13.62;53.24
48156;BME280;35568;48.104;11.782;2022-09-12T06:33:50;95511.83;;;14.11;52.92
48156;BME280;35568;48.104;11.782;2022-09-12T06:36:20;95509.94;;;14.12;51.82
48156;BME280;35568;48.104;11.782;2022-09-12T06:38:52;95510.93;;;14.66;51.70
48156;BME280;35568;48.104;11.782;2022-09-12T06:41:18;95514.90;;;14.60;51.59
48156;BME280;35568;48.104;11.782;2022-09-12T06:43:45;95512.88;;;14.88;50.83
48156;BME280;35568;48.104;11.782;2022-09-12T06:46:12;95511.43;;;14.72;51.00
48156;BME280;35568;48.104;11.782;2022-09-12T06:48:39;95511.88;;;14.92;50.86
48156;BME280;35568;48.104;11.782;2022-09-12T06:51:09;95510.95;;;15.35;50.36
48156;BME280;35568;48.104;11.782;2022-09-12T06:53:36;95515.18;;;15.30;49.87
48156;BME280;35568;48.104;11.782;2022-09-12T06:56:04;95516.49;;;15.42;49.57
48156;BME280;35568;48.104;11.782;2022-09-12T06:58:32;95518.80;;;15.83;49.64
48156;BME280;35568;48.104;11.782;2022-09-12T07:01:01;95512.63;;;15.81;49.52
48156;BME280;35568;48.104;11.782;2022-09-12T07:03:28;95514.26;;;16.30;49.39
48156;BME280;35568;48.104;11.782;2022-09-12T07:05:56;95511.68;;;16.24;48.55
48156;BME280;35568;48.104;11.782;2022-09-12T07:08:23;95515.11;;;16.52;48.55
48156;BME280;35568;48.104;11.782;2022-09-12T07:10:50;95516.18;;;16.67;48.38
48156;BME280;35568;48.104;11.782;2022-09-12T07:13:17;95520.36;;;17.00;47.88
48156;BME280;35568;48.104;11.782;2022-09-12T07:15:44;95519.13;;;17.19;47.51
48156;BME280;35568;48.104;11.782;2022-09-12T07:18:10;95517.99;;;17.22;46.64
48156;BME280;35568;48.104;11.782;2022-09-12T07:20:37;95520.58;;;17.00;46.86
48156;BME280;35568;48.104;11.782;2022-09-12T07:23:04;95522.08;;;17.05;46.33
48156;BME280;35568;48.104;11.782;2022-09-12T07:25:31;95519.61;;;16.84;47.22
48156;BME280;35568;48.104;11.782;2022-09-12T07:27:58;95520.02;;;17.37;46.07
48156;BME280;35568;48.104;11.782;2022-09-12T07:30:25;95521.11;;;17.75;45.84
48156;BME280;35568;48.104;11.782;2022-09-12T07:32:53;95523.66;;;18.28;45.08
48156;BME280;35568;48.104;11.782;2022-09-12T07:35:20;95521.34;;;18.07;45.35
48156;BME280;35568;48.104;11.782;2022-09-12T07:37:47;95520.89;;;18.84;43.63
48156;BME280;35568;48.104;11.782;2022-09-12T07:40:14;95518.57;;;18.54;43.78
48156;BME280;35568;48.104;11.782;2022-09-12T07:42:41;95520.88;;;18.90;43.31
48156;BME280;35568;48.104;11.782;2022-09-12T07:45:08;95521.71;;;18.97;43.29
48156;BME280;35568;48.104;11.782;2022-09-12T07:47:35;95521.68;;;19.24;43.19
48156;BME280;35568;48.104;11.782;2022-09-12T07:50:02;95524.30;;;19.82;42.32
48156;BME280;35568;48.104;11.782;2022-09-12T07:52:30;95523.81;;;19.76;41.93
48156;BME280;35568;48.104;11.782;2022-09-12T07:54:56;95524.72;;;19.45;41.92
48156;BME280;35568;48.104;11.782;2022-09-12T07:57:23;95526.34;;;20.11;41.42
48156;BME280;35568;48.104;11.782;2022-09-12T07:59:50;95525.28;;;20.34;40.82
48156;BME280;35568;48.104;11.782;2022-09-12T08:02:17;95527.75;;;20.29;41.03
48156;BME280;35568;48.104;11.782;2022-09-12T08:04:45;95525.48;;;20.24;41.32
48156;BME280;35568;48.104;11.782;2022-09-12T08:07:12;95524.63;;;20.89;40.48
48156;BME280;35568;48.104;11.782;2022-09-12T08:09:39;95528.66;;;21.03;40.20
48156;BME280;35568;48.104;11.782;2022-09-12T08:12:06;95530.17;;;21.59;38.71
48156;BME280;35568;48.104;11.782;2022-09-12T08:14:33;95530.19;;;21.96;38.70
48156;BME280;35568;48.104;11.782;2022-09-12T08:17:00;95530.01;;;21.35;38.22
48156;BME280;35568;48.104;11.782;2022-09-12T08:19:27;95528.05;;;21.68;37.42
48156;BME280;35568;48.104;11.782;2022-09-12T08:21:53;95528.53;;;21.78;37.90
48156;BME280;35568;48.104;11.782;2022-09-12T08:24:20;95535.79;;;21.89;37.68
48156;BME280;35568;48.104;11.782;2022-09-12T08:26:47;95532.37;;;22.24;37.52
48156;BME280;35568;48.104;11.782;2022-09-12T08:29:14;95532.73;;;22.22;37.39
48156;BME280;35568;48.104;11.782;2022-09-12T08:31:40;95530.98;;;21.88;37.70
48156;BME280;35568;48.104;11.782;2022-09-12T08:34:07;95528.71;;;22.38;36.69
48156;BME280;35568;48.104;11.782;2022-09-12T08:36:35;95528.25;;;23.23;36.19
48156;BME280;35568;48.104;11.782;2022-09-12T08:39:04;95529.95;;;23.09;35.84
48156;BME280;35568;48.104;11.782;2022-09-12T08:41:35;95531.81;;;22.85;36.29
48156;BME280;35568;48.104;11.782;2022-09-12T08:44:16;95530.96;;;23.10;35.71
48156;BME280;35568;48.104;11.782;2022-09-12T08:46:53;95530.77;;;23.24;35.52
48156;BME280;35568;48.104;11.782;2022-09-12T08:49:27;95527.48;;;24.37;34.83
48156;BME280;35568;48.104;11.782;2022-09-12T08:51:59;95528.17;;;24.15;34.13
48156;BME280;35568;48.104;11.782;2022-09-12T08:54:29;95524.42;;;24.70;34.37
48156;BME280;35568;48.104;11.782;2022-09-12T08:57:00;95525.66;;;25.23;32.90
48156;BME280;35568;48.104;11.782;2022-09-12T08:59:37;95526.37;;;25.33;32.09
48156;BME280;35568;48.104;11.782;2022-09-12T09:02:22;95526.00;;;24.64;32.83
48156;BME280;35568;48.104;11.782;2022-09-12T09:04:56;95526.14;;;25.03;32.28
48156;BME280;35568;48.104;11.782;2022-09-12T09:08:39;95523.26;;;25.06;32.10
48156;BME280;35568;48.104;11.782;2022-09-12T09:11:20;95523.97;;;25.71;31.03
48156;BME280;35568;48.104;11.782;2022-09-12T09:14:02;95520.83;;;26.20;30.65
48156;BME280;35568;48.104;11.782;2022-09-12T09:16:38;95518.19;;;25.98;29.83
48156;BME280;35568;48.104;11.782;2022-09-12T09:19:11;95516.69;;;26.40;30.56
48156;BME280;35568;48.104;11.782;2022-09-12T09:21:45;95512.46;;;26.55;29.64
48156;BME280;35568;48.104;11.782;2022-09-12T09:24:17;95509.71;;;26.39;30.44
48156;BME280;35568;48.104;11.782;2022-09-12T09:26:50;95508.86;;;26.17;30.68
48156;BME280;35568;48.104;11.782;2022-09-12T09:29:21;95505.02;;;24.76;30.69
48156;BME280;35568;48.104;11.782;2022-09-12T09:31:52;95505.02;;;26.61;29.57
48156;BME280;35568;48.104;11.782;2022-09-12T09:34:21;95503.27;;;26.23;29.95
48156;BME280;35568;48.104;11.782;2022-09-12T09:36:50;95500.06;;;26.17;30.16
48156;BME280;35568;48.104;11.782;2022-09-12T09:39:28;95500.20;;;26.51;30.38
48156;BME280;35568;48.104;11.782;2022-09-12T09:42:10;95498.53;;;26.47;29.51
48156;BME280;35568;48.104;11.782;2022-09-12T09:44:39;95494.31;;;27.00;30.54
48156;BME280;35568;48.104;11.782;2022-09-12T09:47:08;95493.31;;;27.18;29.24
48156;BME280;35568;48.104;11.782;2022-09-12T09:49:36;95492.24;;;27.19;29.71
48156;BME280;35568;48.104;11.782;2022-09-12T09:52:05;95495.80;;;27.68;29.15
48156;BME280;35568;48.104;11.782;2022-09-12T09:54:35;95494.24;;;28.14;28.81
48156;BME280;35568;48.104;11.782;2022-09-12T09:57:37;95494.72;;;27.80;28.08
48156;BME280;35568;48.104;11.782;2022-09-12T10:00:20;95488.98;;;27.81;27.71
48156;BME280;35568;48.104;11.782;2022-09-12T10:02:59;95486.93;;;28.36;28.28
48156;BME280;35568;48.104;11.782;2022-09-12T10:05:27;95481.59;;;28.26;28.31
48156;BME280;35568;48.104;11.782;2022-09-12T10:07:54;95483.38;;;27.93;28.23
48156;BME280;35568;48.104;11.782;2022-09-12T10:10:21;95487.81;;;28.38;28.35
48156;BME280;35568;48.104;11.782;2022-09-12T10:12:48;95480.71;;;28.55;28.21
48156;BME280;35568;48.104;11.782;2022-09-12T10:15:18;95479.55;;;28.11;27.29
48156;BME280;35568;48.104;11.782;2022-09-12T10:17:47;95480.56;;;28.44;27.66
48156;BME280;35568;48.104;11.782;2022-09-12T10:20:33;95480.52;;;28.45;27.18
48156;BME280;35568;48.104;11.782;2022-09-12T10:23:02;95473.27;;;28.81;25.62
48156;BME280;35568;48.104;11.782;2022-09-12T10:25:44;95472.71;;;28.99;24.97
48156;BME280;35568;48.104;11.782;2022-09-12T10:28:20;95475.32;;;28.81;25.26
48156;BME280;35568;48.104;11.782;2022-09-12T10:30:50;95475.67;;;28.55;25.89
48156;BME280;35568;48.104;11.782;2022-09-12T10:33:19;95468.37;;;29.24;25.68
48156;BME280;35568;48.104;11.782;2022-09-12T10:35:48;95467.84;;;29.95;25.60
48156;BME280;35568;48.104;11.782;2022-09-12T10:38:20;95467.83;;;30.07;25.57
48156;BME280;35568;48.104;11.782;2022-09-12T10:40:55;95465.53;;;29.79;24.48
48156;BME280;35568;48.104;11.782;2022-09-12T10:43:27;95461.54;;;29.97;24.95
48156;BME280;35568;48.104;11.782;2022-09-12T10:45:57;95461.44;;;29.48;24.74
48156;BME280;35568;48.104;11.782;2022-09-12T10:48:28;95459.97;;;29.92;25.59
48156;BME280;35568;48.104;11.782;2022-09-12T10:50:55;95459.34;;;29.95;24.87
48156;BME280;35568;48.104;11.782;2022-09-12T10:53:24;95457.62;;;30.02;24.40
48156;BME280;35568;48.104;11.782;2022-09-12T10:56:02;95456.11;;;30.77;24.46
48156;BME280;35568;48.104;11.782;2022-09-12T10:58:59;95453.51;;;31.12;23.40
48156;BME280;35568;48.104;11.782;2022-09-12T11:01:36;95455.18;;;30.29;23.32
48156;BME280;35568;48.104;11.782;2022-09-12T11:04:19;95453.91;;;29.97;23.80
48156;BME280;35568;48.104;11.782;2022-09-12T11:06:57;95453.55;;;30.40;24.80
48156;BME280;35568;48.104;11.782;2022-09-12T11:09:34;95453.31;;;30.17;22.98
48156;BME280;35568;48.104;11.782;2022-09-12T11:12:13;95451.09;;;30.32;22.47
48156;BME280;35568;48.104;11.782;2022-09-12T11:14:54;95447.78;;;30.24;23.73
48156;BME280;35568;48.104;11.782;2022-09-12T11:17:34;95445.43;;;30.34;22.88
48156;BME280;35568;48.104;11.782;2022-09-12T11:20:22;95445.27;;;30.76;22.53
48156;BME280;35568;48.104;11.782;2022-09-12T11:23:21;95441.74;;;30.62;21.64
48156;BME280;35568;48.104;11.782;2022-09-12T11:25:57;95444.62;;;31.30;21.81
48156;BME280;35568;48.104;11.782;2022-09-12T11:28:33;95443.41;;;31.48;21.67
48156;BME280;35568;48.104;11.782;2022-09-12T11:31:19;95445.64;;;31.59;22.19
48156;BME280;35568;48.104;11.782;2022-09-12T11:33:49;95444.22;;;31.32;22.00
48156;BME280;35568;48.104;11.782;2022-09-12T11:36:27;95445.01;;;30.90;22.41
48156;BME280;35568;48.104;11.782;2022-09-12T11:39:11;95442.74;;;31.40;22.55
48156;BME280;35568;48.104;11.782;2022-09-12T11:41:41;95438.47;;;31.69;22.29
48156;BME280;35568;48.104;11.782;2022-09-12T11:44:14;95436.31;;;31.88;21.88
48156;BME280;35568;48.104;11.782;2022-09-12T11:46:43;95432.29;;;31.58;21.97
48156;BME280;35568;48.104;11.782;2022-09-12T11:49:17;95430.47;;;31.34;22.35
48156;BME280;35568;48.104;11.782;2022-09-12T11:51:49;95427.10;;;31.54;22.11
48156;BME280;35568;48.104;11.782;2022-09-12T11:54:24;95425.20;;;31.64;21.90
48156;BME280;35568;48.104;11.782;2022-09-12T11:56:57;95425.21;;;32.01;21.56
48156;BME280;35568;48.104;11.782;2022-09-12T11:59:31;95426.71;;;31.68;21.25
48156;BME280;35568;48.104;11.782;2022-09-12T12:02:03;95428.94;;;31.98;21.06
48156;BME280;35568;48.104;11.782;2022-09-12T12:04:36;95430.53;;;31.57;20.65
48156;BME280;35568;48.104;11.782;2022-09-12T12:07:07;95429.61;;;31.98;20.51
48156;BME280;35568;48.104;11.782;2022-09-12T12:09:35;95433.19;;;32.22;20.03
48156;BME280;35568;48.104;11.782;2022-09-12T12:12:07;95430.24;;;32.16;20.21
48156;BME280;35568;48.104;11.782;2022-09-12T12:14:41;95425.88;;;31.89;20.60
48156;BME280;35568;48.104;11.782;2022-09-12T12:17:14;95424.46;;;31.86;19.90
48156;BME280;35568;48.104;11.782;2022-09-12T12:19:41;95422.03;;;31.83;18.92
48156;BME280;35568;48.104;11.782;2022-09-12T12:22:16;95420.32;;;31.86;19.23
48156;BME280;35568;48.104;11.782;2022-09-12T12:25:06;95411.48;;;32.20;18.58
48156;BME280;35568;48.104;11.782;2022-09-12T12:27:53;95404.03;;;32.39;19.52
48156;BME280;35568;48.104;11.782;2022-09-12T12:30:59;95404.11;;;32.90;19.34
48156;BME280;35568;48.104;11.782;2022-09-12T12:34:03;95405.35;;;32.44;19.74
48156;BME280;35568;48.104;11.782;2022-09-12T12:36:41;95405.93;;;32.17;19.98
48156;BME280;35568;48.104;11.782;2022-09-12T12:40:22;95407.69;;;32.12;20.20
48156;BME280;35568;48.104;11.782;2022-09-12T12:43:34;95394.04;;;32.86;19.75
48156;BME280;35568;48.104;11.782;2022-09-12T12:46:07;95396.11;;;32.62;19.37
48156;BME280;35568;48.104;11.782;2022-09-12T12:48:55;95395.89;;;32.69;19.71
48156;BME280;35568;48.104;11.782;2022-09-12T12:51:37;95390.07;;;32.54;19.68
48156;BME280;35568;48.104;11.782;2022-09-12T12:54:28;95388.94;;;32.83;19.27
48156;BME280;35568;48.104;11.782;2022-09-12T12:57:01;95382.68;;;32.89;19.10
48156;BME280;35568;48.104;11.782;2022-09-12T12:59:28;95379.54;;;32.78;18.58
48156;BME280;35568;48.104;11.782;2022-09-12T13:01:57;95381.98;;;33.26;18.30
48156;BME280;35568;48.104;11.782;2022-09-12T13:04:27;95381.13;;;33.03;18.56
48156;BME280;35568;48.104;11.782;2022-09-12T13:06:59;95380.50;;;32.90;18.76
48156;BME280;35568;48.104;11.782;2022-09-12T13:09:30;95377.47;;;32.70;19.11
48156;BME280;35568;48.104;11.782;2022-09-12T13:12:01;95375.89;;;33.19;19.06
48156;BME280;35568;48.104;11.782;2022-09-12T13:14:46;95373.33;;;33.22;18.80
48156;BME280;35568;48.104;11.782;2022-09-12T13:17:19;95373.92;;;33.37;19.44
48156;BME280;35568;48.104;11.782;2022-09-12T13:19:48;95371.58;;;33.13;18.87